KMRC/MRC METAR and TAF weather

Enter ICAO airport designator
Station Type Date Time Source
KMRC METAR 2020/02/25 11:55 UTC NOAA

KMRC 251155Z AUTO 21006KT 3SM BR CLR 08/08 A2974 RMK A01


Station Type Date Time Source
KMRC Decoded METAR 2020/02/25 11:55 UTC NOAA

Columbia / Maury County, TN, United States (KMRC) 35-33N 087-11W
Feb 25, 2020 - 06:55 AM EST / 2020.02.25 1155 UTC
Wind: from the SSW (210 degrees) at 7 MPH (6 KT):0
Visibility: 3 mile(s):0
Sky conditions: clear
Weather: mist
Temperature: 46 F (8 C)
Dew Point: 46 F (8 C)
Relative Humidity: 100%
Pressure (altimeter): 29.74 in. Hg (1007 hPa)
ob: KMRC 251155Z AUTO 21006KT 3SM BR CLR 08/08 A2974 RMK A01
cycle: 12

Station Type Date Time Source
KMRC TAF 2009/08/31 19:45 UTC NOAA

METAR KMRC 311945Z AUTO 06008KT 10SM CLR 26/12 A3010
RMK AO1 T02550116 $

Example: see airport list